Time;durP1;ratioP1;P1;durP2;ratioP2;P2;SDS_P1;SDS_P2;PMS_P1;PMS_P2;Temp;Humidity;BMP_temperature;BMP_pressure;BME280_temperature;BME280_humidity;BME280_pressure;Samples;Min_cycle;Max_cycle;Signal;HPM_P1;HPM_P2
2024/01/07 00:02:08;;;;;;;4.97;4.10;;;18.00;58.00;;;;;;5096364;28;20681;-60
2024/01/07 00:04:34;;;;;;;4.97;4.57;;;18.00;57.90;;;;;;5092219;28;20178;-60
2024/01/07 00:07:00;;;;;;;4.65;4.20;;;18.00;58.00;;;;;;5091664;28;20169;-61
2024/01/07 00:09:25;;;;;;;5.32;4.80;;;18.00;58.00;;;;;;5092181;28;20169;-62
2024/01/07 00:11:51;;;;;;;4.95;4.55;;;18.00;58.00;;;;;;5079625;28;20545;-61
2024/01/07 00:14:17;;;;;;;4.28;3.83;;;18.00;58.00;;;;;;5071139;28;20634;-61
2024/01/07 00:16:42;;;;;;;4.55;4.15;;;17.90;58.00;;;;;;5072228;28;20181;-61
2024/01/07 00:19:08;;;;;;;4.82;4.32;;;17.90;58.00;;;;;;5072058;28;20175;-62
2024/01/07 00:21:33;;;;;;;5.40;4.90;;;17.90;57.90;;;;;;5070914;28;20630;-61
2024/01/07 00:23:59;;;;;;;5.75;5.25;;;17.80;57.80;;;;;;5072264;28;20675;-61
2024/01/07 00:26:25;;;;;;;5.60;4.75;;;17.80;57.80;;;;;;5071986;28;20535;-62
2024/01/07 00:28:50;;;;;;;5.38;4.88;;;17.80;57.80;;;;;;5071514;28;20516;-63
2024/01/07 00:31:16;;;;;;;5.00;4.57;;;17.80;57.80;;;;;;5078681;28;20265;-61
2024/01/07 00:33:41;;;;;;;5.18;4.68;;;17.80;57.90;;;;;;5092094;28;20530;-60
2024/01/07 00:36:07;;;;;;;6.22;5.63;;;17.80;57.80;;;;;;5091391;28;20181;-61
2024/01/07 00:38:33;;;;;;;5.70;4.93;;;17.80;57.80;;;;;;5091628;28;20178;-61
2024/01/07 00:40:58;;;;;;;5.82;5.32;;;17.70;57.70;;;;;;5087324;28;20629;-61
2024/01/07 00:43:24;;;;;;;5.88;5.38;;;17.70;57.70;;;;;;5070970;28;20170;-62
2024/01/07 00:45:49;;;;;;;5.43;4.93;;;17.60;57.70;;;;;;5071830;28;20185;-61
2024/01/07 00:48:15;;;;;;;6.10;5.30;;;17.70;57.80;;;;;;5071502;28;20537;-61
2024/01/07 00:50:42;;;;;;;6.65;5.53;;;17.70;57.80;;;;;;5070849;28;20252;-61
2024/01/07 00:53:07;;;;;;;5.53;5.03;;;17.70;57.80;;;;;;5071633;28;20622;-61
2024/01/07 00:55:33;;;;;;;6.13;5.63;;;17.60;57.80;;;;;;5071884;28;20361;-60
2024/01/07 00:57:58;;;;;;;5.35;4.85;;;17.60;57.70;;;;;;5092023;28;20178;-61
2024/01/07 01:00:24;;;;;;;7.00;5.60;;;17.60;57.70;;;;;;5091334;28;20625;-61
2024/01/07 01:02:49;;;;;;;5.72;5.22;;;17.60;57.80;;;;;;5110365;28;20169;-61
2024/01/07 01:05:15;;;;;;;6.20;5.60;;;17.60;57.70;;;;;;5111291;28;20173;-61
2024/01/07 01:07:40;;;;;;;6.13;5.53;;;17.50;57.70;;;;;;5112329;28;20173;-61
2024/01/07 01:10:07;;;;;;;5.93;5.38;;;17.50;57.70;;;;;;5111328;28;20546;-61
2024/01/07 01:12:32;;;;;;;5.70;5.20;;;17.50;57.60;;;;;;5111363;28;20181;-61
2024/01/07 01:14:58;;;;;;;5.30;4.90;;;17.50;57.60;;;;;;5114752;28;20537;-61
2024/01/07 01:17:23;;;;;;;5.72;5.22;;;17.50;57.80;;;;;;5114107;28;20227;-62
2024/01/07 01:19:49;;;;;;;5.50;5.00;;;17.50;57.80;;;;;;5115429;28;20656;-60
2024/01/07 01:22:14;;;;;;;7.30;6.30;;;17.50;57.80;;;;;;5102192;28;20700;-61
2024/01/07 01:24:40;;;;;;;5.75;5.25;;;17.40;57.60;;;;;;5114079;28;20814;-60
2024/01/07 01:27:05;;;;;;;6.10;5.60;;;17.50;57.70;;;;;;5114513;28;20589;-61
2024/01/07 01:29:31;;;;;;;5.93;5.38;;;17.40;57.60;;;;;;5115381;28;20654;-61
2024/01/07 01:31:57;;;;;;;5.82;5.22;;;17.40;57.50;;;;;;5114814;28;20575;-60
2024/01/07 01:34:22;;;;;;;6.10;5.50;;;17.40;57.60;;;;;;5115306;28;20647;-61
2024/01/07 01:36:48;;;;;;;5.85;5.35;;;17.40;57.80;;;;;;5114902;28;20177;-61
2024/01/07 01:39:13;;;;;;;6.00;5.50;;;17.40;57.80;;;;;;5114251;28;20174;-62
2024/01/07 01:41:39;;;;;;;6.93;6.20;;;17.40;57.60;;;;;;5115469;28;20177;-61
2024/01/07 01:44:05;;;;;;;6.10;5.55;;;17.30;57.60;;;;;;5097157;28;20659;-61
2024/01/07 01:46:30;;;;;;;6.43;5.82;;;17.40;57.60;;;;;;5114437;28;20173;-61
2024/01/07 01:48:56;;;;;;;6.53;5.88;;;17.30;57.50;;;;;;5115319;28;20541;-60
2024/01/07 01:51:22;;;;;;;5.90;5.30;;;17.30;57.50;;;;;;5096974;28;20254;-61
2024/01/07 01:53:47;;;;;;;6.38;5.78;;;17.30;57.50;;;;;;5096589;28;20234;-61
2024/01/07 01:56:13;;;;;;;6.65;6.03;;;17.30;57.40;;;;;;5114989;28;20225;-61
2024/01/07 01:58:38;;;;;;;6.25;5.72;;;17.30;57.60;;;;;;5097190;28;20202;-62
2024/01/07 02:01:04;;;;;;;5.60;5.10;;;17.30;57.60;;;;;;5114499;28;20176;-61
2024/01/07 02:03:30;;;;;;;6.47;5.88;;;17.20;57.50;;;;;;5114717;28;20176;-61
2024/01/07 02:05:56;;;;;;;7.35;6.32;;;17.20;57.40;;;;;;5114386;28;20646;-61
2024/01/07 02:08:22;;;;;;;6.10;5.50;;;17.20;57.40;;;;;;5096622;28;20256;-61
2024/01/07 02:10:47;;;;;;;6.53;5.93;;;17.20;57.50;;;;;;5114854;28;20644;-62
2024/01/07 02:13:13;;;;;;;6.28;5.68;;;17.20;57.40;;;;;;5114200;28;20173;-62
2024/01/07 02:15:38;;;;;;;6.00;5.43;;;17.20;57.50;;;;;;5114923;28;20242;-61
2024/01/07 02:18:04;;;;;;;6.85;6.25;;;17.20;57.40;;;;;;5114740;28;20281;-61
2024/01/07 02:20:30;;;;;;;6.70;6.10;;;17.20;57.30;;;;;;5113912;28;20208;-62
2024/01/07 02:22:57;;;;;;;6.80;6.13;;;17.20;57.40;;;;;;5114900;28;20200;-61
2024/01/07 02:25:23;;;;;;;6.53;5.90;;;17.10;57.30;;;;;;5113483;27;20177;-62
2024/01/07 02:27:49;;;;;;;6.82;6.13;;;17.20;57.60;;;;;;5113902;28;20180;-62
2024/01/07 02:30:14;;;;;;;6.65;6.05;;;17.10;57.40;;;;;;5114389;28;20259;-63
2024/01/07 02:32:40;;;;;;;6.22;5.63;;;17.10;57.40;;;;;;5114504;28;20169;-60
2024/01/07 02:35:05;;;;;;;6.78;6.05;;;17.10;57.30;;;;;;5113763;28;20211;-61
2024/01/07 02:37:31;;;;;;;6.70;6.10;;;17.10;57.40;;;;;;5114073;28;20180;-61
2024/01/07 02:39:56;;;;;;;6.50;5.90;;;17.10;57.40;;;;;;5114523;28;20276;-61
2024/01/07 02:42:22;;;;;;;6.45;5.75;;;17.10;57.50;;;;;;5113412;28;20181;-62
2024/01/07 02:44:47;;;;;;;6.32;5.75;;;17.10;57.50;;;;;;5112873;28;20188;-61
2024/01/07 02:47:13;;;;;;;6.75;6.03;;;17.00;57.50;;;;;;5113410;28;20230;-62
2024/01/07 02:49:38;;;;;;;5.97;5.47;;;17.00;58.10;;;;;;5113177;28;20168;-60
2024/01/07 02:52:04;;;;;;;6.40;5.80;;;17.00;57.50;;;;;;5113630;28;20218;-61
2024/01/07 02:54:30;;;;;;;6.65;6.05;;;17.00;57.30;;;;;;5113480;28;20170;-60
2024/01/07 02:56:55;;;;;;;6.68;6.07;;;17.00;57.30;;;;;;5100311;28;20287;-61
2024/01/07 02:59:21;;;;;;;6.57;5.97;;;17.00;57.30;;;;;;5090415;28;20540;-62
2024/01/07 03:01:46;;;;;;;6.35;5.75;;;17.00;57.40;;;;;;5093266;28;20170;-61
2024/01/07 03:04:13;;;;;;;6.30;5.75;;;16.90;57.40;;;;;;5092192;28;20514;-61
2024/01/07 03:06:39;;;;;;;6.20;5.70;;;16.90;57.40;;;;;;5093079;28;20532;-61
2024/01/07 03:09:04;;;;;;;6.20;5.60;;;17.00;57.40;;;;;;5092951;28;20270;-61
2024/01/07 03:11:30;;;;;;;6.88;5.63;;;16.90;57.40;;;;;;5082496;28;20316;-62
2024/01/07 03:13:56;;;;;;;6.10;5.50;;;16.90;57.30;;;;;;5084190;28;20620;-61
2024/01/07 03:16:22;;;;;;;6.15;5.55;;;16.90;57.30;;;;;;5091294;28;20185;-62
2024/01/07 03:18:47;;;;;;;6.20;5.68;;;16.90;57.30;;;;;;5092837;28;20186;-60
2024/01/07 03:21:20;;;;;;;6.35;5.70;;;16.90;57.30;;;;;;5093418;28;20684;-62
2024/01/07 03:23:46;;;;;;;6.30;5.75;;;16.90;57.30;;;;;;5092621;28;20178;-61
2024/01/07 03:26:12;;;;;;;6.03;5.53;;;16.90;57.30;;;;;;5098734;28;20180;-61
2024/01/07 03:28:37;;;;;;;6.30;5.70;;;16.90;57.30;;;;;;5113168;28;20181;-61
2024/01/07 03:31:08;;;;;;;6.13;5.45;;;16.90;57.20;;;;;;5112548;28;20205;-62
2024/01/07 03:33:34;;;;;;;5.90;5.35;;;16.80;57.30;;;;;;5113017;28;20184;-60
2024/01/07 03:35:59;;;;;;;6.05;5.45;;;16.80;57.20;;;;;;5093400;28;20182;-61
2024/01/07 03:38:25;;;;;;;5.93;5.43;;;16.80;57.20;;;;;;5091023;28;20184;-61
2024/01/07 03:40:51;;;;;;;5.72;5.22;;;16.80;57.30;;;;;;5092978;28;20165;-62
2024/01/07 03:43:16;;;;;;;5.88;5.38;;;16.80;57.30;;;;;;5092083;28;20178;-62
2024/01/07 03:45:43;;;;;;;5.28;4.88;;;16.80;57.20;;;;;;5103168;28;20170;-61
2024/01/07 03:48:08;;;;;;;5.40;4.90;;;16.80;57.10;;;;;;5113250;28;20173;-61
2024/01/07 03:50:34;;;;;;;5.60;5.07;;;16.80;57.10;;;;;;5112324;28;21024;-61
2024/01/07 03:53:00;;;;;;;5.47;4.97;;;16.80;57.10;;;;;;5111602;28;20181;-62
2024/01/07 03:55:25;;;;;;;5.13;4.65;;;16.70;57.10;;;;;;5109302;28;20580;-59
2024/01/07 03:57:51;;;;;;;5.80;5.30;;;16.70;57.20;;;;;;5111830;28;20188;-61
2024/01/07 04:00:16;;;;;;;5.88;5.38;;;16.70;57.10;;;;;;5111611;28;20169;-61
2024/01/07 04:02:43;;;;;;;5.93;5.43;;;16.70;57.10;;;;;;5112798;28;20176;-61
2024/01/07 04:05:09;;;;;;;5.50;5.00;;;16.70;57.20;;;;;;5112815;28;20181;-62
2024/01/07 04:07:35;;;;;;;5.70;5.20;;;16.70;57.20;;;;;;5111229;28;20265;-62
2024/01/07 04:10:00;;;;;;;5.43;4.95;;;16.70;57.30;;;;;;5112704;28;20288;-63
2024/01/07 04:12:26;;;;;;;5.47;4.95;;;16.70;57.30;;;;;;5112303;28;20161;-62
2024/01/07 04:14:51;;;;;;;5.53;5.13;;;16.70;57.20;;;;;;5111784;28;20249;-60
2024/01/07 04:17:17;;;;;;;6.00;5.50;;;16.70;57.10;;;;;;5110841;28;20220;-62
2024/01/07 04:19:42;;;;;;;5.38;4.93;;;16.60;57.00;;;;;;5111466;28;20176;-61
2024/01/07 04:22:08;;;;;;;5.47;4.97;;;16.70;57.20;;;;;;5112691;28;20481;-62
2024/01/07 04:24:33;;;;;;;5.70;5.20;;;16.60;57.10;;;;;;5112315;28;20658;-61
2024/01/07 04:26:59;;;;;;;5.35;4.85;;;16.60;57.10;;;;;;5111028;28;20177;-61
2024/01/07 04:29:24;;;;;;;5.60;5.10;;;16.60;57.10;;;;;;5112239;28;20177;-63
2024/01/07 04:31:50;;;;;;;4.90;4.50;;;16.60;57.10;;;;;;5112562;28;20176;-61
2024/01/07 04:34:15;;;;;;;4.70;4.30;;;16.60;57.20;;;;;;5111638;28;20177;-61
2024/01/07 04:36:41;;;;;;;5.32;4.82;;;16.60;57.30;;;;;;5111985;28;20172;-61
2024/01/07 04:39:06;;;;;;;5.10;4.60;;;16.50;57.20;;;;;;5112465;28;20165;-61
2024/01/07 04:41:32;;;;;;;4.97;4.57;;;16.60;57.80;;;;;;5111258;28;20579;-62
2024/01/07 04:43:57;;;;;;;4.97;4.50;;;16.50;57.10;;;;;;5112328;28;20761;-60
2024/01/07 04:46:23;;;;;;;5.38;4.88;;;16.50;57.20;;;;;;5111738;28;20191;-62
2024/01/07 04:48:48;;;;;;;5.05;4.65;;;16.50;57.40;;;;;;5113498;28;20176;-62
2024/01/07 04:51:14;;;;;;;4.70;4.30;;;16.50;57.00;;;;;;5115406;28;20205;-62
2024/01/07 04:53:40;;;;;;;5.55;5.05;;;16.50;57.20;;;;;;5115745;28;20169;-61
2024/01/07 04:56:05;;;;;;;4.93;4.53;;;16.50;57.40;;;;;;5115083;28;20248;-61
2024/01/07 04:58:31;;;;;;;5.22;4.70;;;16.50;57.30;;;;;;5115933;28;20193;-61
2024/01/07 05:00:56;;;;;;;5.10;4.60;;;16.50;57.30;;;;;;5116338;28;20611;-61
2024/01/07 05:03:22;;;;;;;4.80;4.40;;;16.50;57.30;;;;;;5115285;28;20245;-62
2024/01/07 05:05:47;;;;;;;5.35;4.85;;;16.50;57.20;;;;;;5115007;28;20281;-62
2024/01/07 05:08:13;;;;;;;5.00;4.60;;;16.50;57.30;;;;;;5116218;28;20256;-61
2024/01/07 05:10:38;;;;;;;4.68;4.28;;;16.50;57.30;;;;;;5115428;28;20208;-62
2024/01/07 05:13:05;;;;;;;5.00;4.50;;;16.50;57.40;;;;;;5116047;28;20169;-62
2024/01/07 05:15:31;;;;;;;4.40;4.10;;;16.50;57.30;;;;;;5114111;28;20584;-62
2024/01/07 05:17:57;;;;;;;4.85;4.45;;;16.40;57.30;;;;;;5115102;28;20177;-61
2024/01/07 05:20:22;;;;;;;4.35;3.90;;;16.40;57.30;;;;;;5115468;28;20648;-62
2024/01/07 05:22:48;;;;;;;5.22;4.50;;;16.40;57.30;;;;;;5115530;28;20174;-62
2024/01/07 05:25:13;;;;;;;4.57;4.18;;;16.40;57.30;;;;;;5111725;28;20778;-61
2024/01/07 05:27:39;;;;;;;4.68;4.28;;;16.40;57.20;;;;;;5095304;28;20166;-61
2024/01/07 05:30:05;;;;;;;5.32;4.88;;;16.40;57.10;;;;;;5076521;28;20209;-61
2024/01/07 05:32:31;;;;;;;4.50;4.10;;;16.40;57.30;;;;;;5076675;28;20184;-60
2024/01/07 05:34:56;;;;;;;4.38;4.07;;;16.40;57.20;;;;;;5107362;28;20609;-61
2024/01/07 05:37:22;;;;;;;4.68;4.28;;;16.30;57.10;;;;;;5114373;28;20263;-61
2024/01/07 05:39:48;;;;;;;4.88;4.47;;;16.40;57.30;;;;;;5114910;28;20204;-60
2024/01/07 05:42:13;;;;;;;4.07;3.78;;;16.30;57.40;;;;;;5094301;28;20185;-61
2024/01/07 05:44:40;;;;;;;4.60;4.20;;;16.30;57.30;;;;;;5091990;28;20577;-61
2024/01/07 05:47:06;;;;;;;4.43;4.10;;;16.20;57.20;;;;;;5077333;28;20541;-61
2024/01/07 05:49:31;;;;;;;4.38;4.07;;;16.30;57.20;;;;;;5074182;28;20629;-61
2024/01/07 05:51:57;;;;;;;4.72;4.20;;;16.30;57.20;;;;;;5073813;28;20193;-61
2024/01/07 05:54:22;;;;;;;4.35;3.95;;;16.30;57.10;;;;;;5073884;28;20174;-61
2024/01/07 05:56:48;;;;;;;5.18;4.70;;;16.30;57.10;;;;;;5103040;28;20229;-61
2024/01/07 05:59:13;;;;;;;4.82;4.43;;;16.30;57.10;;;;;;5114586;28;20255;-61
2024/01/07 06:01:39;;;;;;;4.47;4.07;;;16.20;57.60;;;;;;5085936;28;20267;-61
2024/01/07 06:04:04;;;;;;;4.57;4.18;;;16.30;57.20;;;;;;5074335;28;20190;-60
2024/01/07 06:06:30;;;;;;;5.03;4.35;;;16.30;57.30;;;;;;5073383;28;20181;-61
2024/01/07 06:08:55;;;;;;;4.45;4.10;;;16.20;57.20;;;;;;5074453;28;20173;-61
2024/01/07 06:11:21;;;;;;;4.93;4.50;;;16.20;57.10;;;;;;5086340;28;20668;-61
2024/01/07 06:13:46;;;;;;;4.70;4.30;;;16.20;57.00;;;;;;5094048;28;20170;-61
2024/01/07 06:16:12;;;;;;;4.60;4.20;;;16.20;57.20;;;;;;5094697;28;20636;-62
2024/01/07 06:18:38;;;;;;;4.63;4.22;;;16.20;57.20;;;;;;5094089;28;20213;-61
2024/01/07 06:21:03;;;;;;;4.85;4.45;;;16.20;57.20;;;;;;5102521;28;20184;-62
2024/01/07 06:23:29;;;;;;;4.28;3.88;;;16.20;57.10;;;;;;5110493;28;20173;-60
2024/01/07 06:25:54;;;;;;;4.50;4.10;;;16.20;57.00;;;;;;5074738;28;20175;-61
2024/01/07 06:28:20;;;;;;;4.45;4.05;;;16.20;57.10;;;;;;5090719;28;20616;-61
2024/01/07 06:30:46;;;;;;;4.22;3.83;;;16.20;57.20;;;;;;5093542;28;20660;-61
2024/01/07 06:33:12;;;;;;;4.78;4.35;;;16.10;57.20;;;;;;5093678;28;20174;-61
2024/01/07 06:35:38;;;;;;;4.38;3.97;;;16.20;57.10;;;;;;5093828;28;20674;-61
2024/01/07 06:38:04;;;;;;;4.68;4.28;;;16.20;57.20;;;;;;5092903;28;20182;-61
2024/01/07 06:40:29;;;;;;;4.30;3.90;;;16.10;57.10;;;;;;5092460;28;20177;-62
2024/01/07 06:42:56;;;;;;;4.75;4.35;;;16.10;57.10;;;;;;5090824;28;20710;-61
2024/01/07 06:45:21;;;;;;;5.00;4.50;;;16.10;57.00;;;;;;5093779;28;20252;-61
2024/01/07 06:47:47;;;;;;;4.07;3.78;;;16.10;57.00;;;;;;5090408;28;20284;-61
2024/01/07 06:50:12;;;;;;;4.22;3.83;;;16.10;57.20;;;;;;5093745;28;20676;-61
2024/01/07 06:52:38;;;;;;;4.40;4.00;;;16.10;57.20;;;;;;5093581;28;20188;-61
2024/01/07 06:55:04;;;;;;;4.50;4.10;;;16.00;57.10;;;;;;5092802;28;20560;-61
2024/01/07 06:57:29;;;;;;;4.07;3.78;;;16.10;57.20;;;;;;5109921;28;20588;-61
2024/01/07 06:59:55;;;;;;;3.90;3.60;;;16.10;57.10;;;;;;5114188;28;20192;-60
2024/01/07 07:02:21;;;;;;;4.55;4.15;;;16.00;57.00;;;;;;5113105;28;20180;-60
2024/01/07 07:04:47;;;;;;;3.88;3.58;;;16.00;57.10;;;;;;5113547;28;20173;-61
2024/01/07 07:07:13;;;;;;;4.20;3.90;;;16.00;57.10;;;;;;5113868;28;20174;-62
2024/01/07 07:09:38;;;;;;;3.83;3.53;;;16.00;57.20;;;;;;5111734;28;20173;-61
2024/01/07 07:12:05;;;;;;;4.22;3.83;;;16.00;57.10;;;;;;5113336;28;20181;-61
2024/01/07 07:14:31;;;;;;;3.80;3.50;;;16.00;57.80;;;;;;5113424;28;20187;-62
2024/01/07 07:16:56;;;;;;;4.40;3.92;;;16.00;57.10;;;;;;5112910;28;20177;-61
2024/01/07 07:19:22;;;;;;;5.00;4.30;;;16.00;57.10;;;;;;5112844;28;20268;-62
2024/01/07 07:21:47;;;;;;;3.80;3.50;;;16.00;57.10;;;;;;5113659;28;20260;-61
2024/01/07 07:24:13;;;;;;;3.90;3.60;;;16.00;57.10;;;;;;5112754;28;20173;-61
2024/01/07 07:26:40;;;;;;;4.18;3.80;;;15.90;57.20;;;;;;5113878;28;20173;-61
2024/01/07 07:29:09;;;;;;;4.20;3.83;;;15.90;57.10;;;;;;5113041;28;20177;-60
2024/01/07 07:31:35;;;;;;;4.78;4.38;;;15.90;57.10;;;;;;5111724;28;20212;-60
2024/01/07 07:34:00;;;;;;;4.03;3.72;;;15.90;57.10;;;;;;5112330;28;20241;-60
2024/01/07 07:36:26;;;;;;;4.35;3.95;;;15.90;57.10;;;;;;5111458;28;20272;-61
2024/01/07 07:38:51;;;;;;;4.20;3.80;;;15.90;57.10;;;;;;5112282;28;20173;-61
2024/01/07 07:41:17;;;;;;;4.13;3.83;;;15.90;57.00;;;;;;5113158;28;20201;-62
2024/01/07 07:43:42;;;;;;;4.32;3.85;;;15.90;57.10;;;;;;5111972;28;20172;-61
2024/01/07 07:46:08;;;;;;;4.25;3.85;;;15.90;57.10;;;;;;5112974;28;20169;-61
2024/01/07 07:48:33;;;;;;;3.70;3.40;;;15.90;57.30;;;;;;5112390;28;20173;-61
2024/01/07 07:50:59;;;;;;;4.03;3.72;;;15.90;57.40;;;;;;5112292;28;20960;-61
2024/01/07 07:53:24;;;;;;;3.90;3.40;;;15.90;57.30;;;;;;5112481;28;20647;-61
2024/01/07 07:55:50;;;;;;;3.35;3.15;;;15.90;57.30;;;;;;5112882;28;20296;-61
2024/01/07 07:58:16;;;;;;;3.55;3.25;;;16.00;57.30;;;;;;5100638;28;20596;-62
2024/01/07 08:00:41;;;;;;;4.13;3.83;;;16.00;57.20;;;;;;5112200;28;20192;-62
2024/01/07 08:03:07;;;;;;;4.00;3.70;;;16.00;57.20;;;;;;5112866;28;20173;-61
2024/01/07 08:05:32;;;;;;;3.70;3.40;;;16.00;57.30;;;;;;5093381;28;20178;-62
2024/01/07 08:07:58;;;;;;;3.92;3.63;;;16.00;57.30;;;;;;5091733;28;20710;-61
2024/01/07 08:10:23;;;;;;;3.40;3.20;;;15.90;57.20;;;;;;5091812;28;20569;-62
2024/01/07 08:12:49;;;;;;;3.50;3.20;;;15.90;57.30;;;;;;5091603;28;20176;-62
2024/01/07 08:15:15;;;;;;;3.42;3.13;;;15.90;57.30;;;;;;5105495;28;20662;-62
2024/01/07 08:17:40;;;;;;;3.40;3.10;;;15.90;57.30;;;;;;5112729;28;20169;-61
2024/01/07 08:20:06;;;;;;;3.63;3.33;;;15.90;57.30;;;;;;5111427;28;20165;-61
2024/01/07 08:22:32;;;;;;;3.72;3.40;;;15.90;57.30;;;;;;5111442;28;20601;-61
2024/01/07 08:24:58;;;;;;;3.55;3.25;;;15.90;57.30;;;;;;5099760;28;20285;-62
2024/01/07 08:27:23;;;;;;;3.80;3.50;;;15.90;57.30;;;;;;5090581;28;20312;-64
2024/01/07 08:29:49;;;;;;;3.60;3.30;;;16.00;57.30;;;;;;5091781;28;20181;-60
2024/01/07 08:32:14;;;;;;;3.65;3.35;;;16.00;57.10;;;;;;5091469;28;20276;-61
2024/01/07 08:34:40;;;;;;;3.65;3.35;;;16.00;57.10;;;;;;5091532;28;20268;-60
2024/01/07 08:37:06;;;;;;;3.72;3.40;;;16.00;57.10;;;;;;5091568;28;20265;-61
2024/01/07 08:39:32;;;;;;;3.42;2.90;;;15.90;57.10;;;;;;5091956;28;20596;-61
2024/01/07 08:41:57;;;;;;;3.75;3.45;;;15.90;57.20;;;;;;5102801;28;20745;-61
2024/01/07 08:44:23;;;;;;;2.97;2.78;;;15.90;57.20;;;;;;5112093;28;20273;-61
2024/01/07 08:46:48;;;;;;;3.80;3.50;;;15.90;57.20;;;;;;5111304;28;20260;-61
2024/01/07 08:49:14;;;;;;;3.40;3.10;;;15.90;57.10;;;;;;5112112;28;20265;-61
2024/01/07 08:51:39;;;;;;;3.50;3.20;;;15.90;57.30;;;;;;5111306;28;20686;-61
2024/01/07 08:54:05;;;;;;;3.55;3.25;;;15.90;57.20;;;;;;5111590;28;20623;-60
2024/01/07 08:56:30;;;;;;;3.47;3.17;;;15.90;57.70;;;;;;5111523;28;20248;-61
2024/01/07 08:58:56;;;;;;;3.10;2.80;;;15.90;57.10;;;;;;5112041;28;20232;-60
2024/01/07 09:01:22;;;;;;;2.75;2.53;;;16.00;57.10;;;;;;5110046;28;20619;-61
2024/01/07 09:03:47;;;;;;;3.22;2.95;;;16.00;57.10;;;;;;5112275;28;20177;-60
2024/01/07 09:06:13;;;;;;;3.40;2.72;;;16.00;57.00;;;;;;5112057;28;20177;-61
2024/01/07 09:08:38;;;;;;;3.28;2.97;;;16.10;56.80;;;;;;5098981;28;20177;-61
2024/01/07 09:11:05;;;;;;;3.25;2.95;;;16.10;56.70;;;;;;5089222;28;20301;-61
2024/01/07 09:13:31;;;;;;;2.95;2.75;;;16.10;56.60;;;;;;5091464;28;20204;-61
2024/01/07 09:15:57;;;;;;;2.95;2.75;;;16.20;56.60;;;;;;5091144;28;20198;-61
2024/01/07 09:18:23;;;;;;;3.35;3.05;;;16.20;56.70;;;;;;5091385;28;20666;-60
2024/01/07 09:20:48;;;;;;;2.90;2.70;;;16.20;56.60;;;;;;5091459;28;20589;-61
2024/01/07 09:23:15;;;;;;;2.75;2.55;;;16.30;56.60;;;;;;5107134;28;20174;-61
2024/01/07 09:25:41;;;;;;;2.65;2.45;;;16.30;56.50;;;;;;5112214;28;20248;-61
2024/01/07 09:28:06;;;;;;;3.83;2.70;;;16.40;56.50;;;;;;5105946;28;20174;-61
2024/01/07 09:30:32;;;;;;;2.95;2.75;;;16.40;56.50;;;;;;5090544;28;20214;-61
2024/01/07 09:32:58;;;;;;;3.00;2.75;;;16.50;56.30;;;;;;5091514;28;20683;-60
2024/01/07 09:35:23;;;;;;;3.10;2.80;;;16.60;56.30;;;;;;5093544;28;20668;-61
2024/01/07 09:37:49;;;;;;;3.20;2.90;;;16.60;56.20;;;;;;5095292;28;20181;-60
2024/01/07 09:40:20;;;;;;;2.92;2.55;;;16.60;56.10;;;;;;5115434;28;20180;-61
2024/01/07 09:42:46;;;;;;;2.42;2.33;;;16.60;56.10;;;;;;5115657;28;20173;-61
2024/01/07 09:45:12;;;;;;;2.40;2.20;;;16.70;56.00;;;;;;5114766;28;20204;-61
2024/01/07 09:47:40;;;;;;;3.00;2.78;;;16.70;56.00;;;;;;5095919;28;20173;-60
2024/01/07 09:50:06;;;;;;;3.05;2.53;;;16.70;56.00;;;;;;5114502;28;20219;-61
2024/01/07 09:52:32;;;;;;;2.45;2.25;;;16.80;56.00;;;;;;5114981;28;20539;-61
2024/01/07 09:55:00;;;;;;;2.60;2.40;;;16.70;56.00;;;;;;5097379;28;20181;-60
2024/01/07 09:57:25;;;;;;;2.92;2.40;;;16.70;56.00;;;;;;5102510;28;20222;-61
2024/01/07 09:59:51;;;;;;;2.78;2.58;;;16.60;56.00;;;;;;5093229;28;20223;-60
2024/01/07 10:02:16;;;;;;;2.90;2.58;;;16.60;56.10;;;;;;5075528;28;20531;-59
2024/01/07 10:04:42;;;;;;;2.42;2.22;;;16.50;56.40;;;;;;5075048;28;20269;-59
2024/01/07 10:07:08;;;;;;;2.90;2.70;;;16.50;56.40;;;;;;5094869;28;20178;-60
2024/01/07 10:09:33;;;;;;;7.60;3.78;;;16.40;56.40;;;;;;5094373;28;20598;-60
2024/01/07 10:11:59;;;;;;;4.03;3.05;;;16.50;56.90;;;;;;5106409;28;20682;-60
2024/01/07 10:14:25;;;;;;;7.25;5.18;;;16.50;56.70;;;;;;5114736;28;20173;-60
2024/01/07 10:16:52;;;;;;;6.18;4.50;;;16.50;57.30;;;;;;5107621;28;20243;-60
2024/01/07 10:19:21;;;;;;;4.55;3.60;;;16.50;57.20;;;;;;5093324;28;20173;-64
2024/01/07 10:21:46;;;;;;;6.25;4.00;;;16.50;57.40;;;;;;5094381;28;20190;-65
2024/01/07 10:24:13;;;;;;;5.38;4.00;;;16.60;57.40;;;;;;5094454;28;20251;-65
2024/01/07 10:26:39;;;;;;;6.28;3.92;;;16.60;57.60;;;;;;5095735;28;20264;-66
2024/01/07 10:29:05;;;;;;;4.38;3.33;;;16.60;57.20;;;;;;5114834;28;20534;-68
2024/01/07 10:31:31;;;;;;;3.80;3.40;;;16.60;57.00;;;;;;5114367;28;20295;-67
2024/01/07 10:33:57;;;;;;;5.03;3.22;;;16.60;57.20;;;;;;5113605;28;20173;-66
2024/01/07 10:36:23;;;;;;;4.55;3.83;;;16.60;57.20;;;;;;5112884;28;20685;-66
2024/01/07 10:38:48;;;;;;;5.03;3.22;;;16.60;57.30;;;;;;5059266;28;20639;-66
2024/01/07 10:41:17;;;;;;;8.05;4.05;;;16.60;57.20;;;;;;5092984;28;20184;-67
2024/01/07 10:43:43;;;;;;;6.18;4.32;;;16.60;57.20;;;;;;5075994;28;20640;-65
2024/01/07 10:46:09;;;;;;;4.45;3.13;;;16.60;57.20;;;;;;5058353;28;20166;-66
2024/01/07 10:48:36;;;;;;;4.93;3.80;;;16.60;57.40;;;;;;5088074;28;20169;-66
2024/01/07 10:51:01;;;;;;;4.43;3.30;;;16.60;57.30;;;;;;5096232;28;20211;-66
2024/01/07 10:53:28;;;;;;;4.15;3.53;;;16.60;57.40;;;;;;5095147;28;20173;-66
2024/01/07 10:56:00;;;;;;;4.53;3.65;;;16.60;57.20;;;;;;5079012;28;20307;-66
2024/01/07 10:58:26;;;;;;;4.35;3.42;;;16.60;57.20;;;;;;5073683;28;20185;-66
2024/01/07 11:00:52;;;;;;;5.47;3.70;;;16.60;57.20;;;;;;5088121;28;20205;-67
2024/01/07 11:03:37;;;;;;;4.75;3.40;;;16.60;57.20;;;;;;5074435;28;20178;-66
2024/01/07 11:06:25;;;;;;;6.32;4.03;;;16.60;57.30;;;;;;5075295;28;20648;-67
2024/01/07 11:09:03;;;;;;;4.32;3.10;;;16.60;57.20;;;;;;5092934;28;20203;-66
2024/01/07 11:11:37;;;;;;;4.22;3.40;;;16.60;57.20;;;;;;5074689;28;20206;-67
2024/01/07 11:14:02;;;;;;;5.95;3.95;;;16.70;57.10;;;;;;5095710;28;20172;-67
2024/01/07 11:16:44;;;;;;;7.30;3.83;;;16.60;56.90;;;;;;5112741;28;20670;-66
2024/01/07 11:19:09;;;;;;;5.88;3.35;;;16.60;56.40;;;;;;5079401;28;20204;-69
2024/01/07 11:21:35;;;;;;;3.83;2.75;;;16.60;56.40;;;;;;5057509;28;20170;-69
2024/01/07 11:24:00;;;;;;;5.00;2.95;;;16.60;56.40;;;;;;5065188;28;20258;-69
2024/01/07 11:26:29;;;;;;;5.18;3.05;;;16.60;56.50;;;;;;5054899;28;20630;-67
2024/01/07 11:28:56;;;;;;;3.92;2.88;;;16.60;56.50;;;;;;5072004;28;20205;-70
2024/01/07 11:31:41;;;;;;;3.42;2.65;;;16.60;56.70;;;;;;5078378;28;20229;-70
2024/01/07 11:34:06;;;;;;;3.58;3.00;;;16.50;56.80;;;;;;5076595;28;20167;-69
2024/01/07 11:36:32;;;;;;;5.60;3.17;;;16.50;56.70;;;;;;5079246;28;20458;-72
2024/01/07 11:38:57;;;;;;;9.55;3.45;;;16.60;56.70;;;;;;5050337;28;20314;-67
2024/01/07 11:41:23;;;;;;;6.30;2.90;;;16.60;56.60;;;;;;5074449;28;20212;-65
2024/01/07 11:43:54;;;;;;;6.43;3.25;;;16.70;56.80;;;;;;5058028;28;20249;-67
2024/01/07 11:46:19;;;;;;;5.95;3.33;;;16.80;56.80;;;;;;5071923;28;20190;-68
2024/01/07 11:48:48;;;;;;;5.28;3.30;;;16.80;56.80;;;;;;5080166;28;20181;-66
2024/01/07 11:51:14;;;;;;;5.00;2.78;;;16.90;56.90;;;;;;5091605;28;20747;-68
2024/01/07 11:53:39;;;;;;;9.75;3.05;;;16.80;56.90;;;;;;5092616;28;20174;-66
2024/01/07 11:56:05;;;;;;;3.55;2.80;;;16.80;56.90;;;;;;5098042;28;20947;-66
2024/01/07 11:58:31;;;;;;;6.22;3.00;;;16.80;56.90;;;;;;5111792;28;20183;-66
2024/01/07 12:00:56;;;;;;;6.53;3.45;;;16.80;57.00;;;;;;5112965;28;20173;-67
2024/01/07 12:03:23;;;;;;;4.47;2.72;;;16.80;57.10;;;;;;5112276;28;20250;-69
2024/01/07 12:05:49;;;;;;;3.83;2.63;;;16.70;57.10;;;;;;5101014;28;20588;-66
2024/01/07 12:08:15;;;;;;;3.10;2.40;;;16.80;57.30;;;;;;5074318;28;20169;-68
2024/01/07 12:10:41;;;;;;;3.67;2.30;;;16.70;57.00;;;;;;5092452;28;20213;-66
2024/01/07 12:13:08;;;;;;;7.13;3.00;;;16.70;56.70;;;;;;5091606;28;20178;-65
2024/01/07 12:15:33;;;;;;;5.88;2.53;;;16.70;56.90;;;;;;5073984;28;20188;-70
2024/01/07 12:18:01;;;;;;;5.90;2.78;;;16.70;56.90;;;;;;5091426;28;20175;-69
2024/01/07 12:20:27;;;;;;;10.65;2.70;;;16.70;57.40;;;;;;5091589;28;20185;-69
2024/01/07 12:23:04;;;;;;;8.00;2.72;;;16.70;57.10;;;;;;5103249;28;20549;-69
2024/01/07 12:25:30;;;;;;;4.32;2.78;;;16.70;57.20;;;;;;5095032;28;20603;-69
2024/01/07 12:27:55;;;;;;;7.55;2.55;;;16.70;57.30;;;;;;5112604;28;20200;-71
2024/01/07 12:30:23;;;;;;;6.00;2.50;;;16.70;57.40;;;;;;5093665;28;20565;-68
2024/01/07 12:32:51;;;;;;;4.10;2.13;;;16.60;57.40;;;;;;5111397;28;20173;-68
2024/01/07 12:35:17;;;;;;;4.15;2.40;;;16.50;57.60;;;;;;5112240;28;20538;-70
2024/01/07 12:37:44;;;;;;;4.70;2.20;;;16.50;57.60;;;;;;5112324;28;20174;-69
2024/01/07 12:40:11;;;;;;;5.40;2.65;;;16.50;57.70;;;;;;5110665;28;20572;-69
2024/01/07 12:42:39;;;;;;;4.80;2.30;;;16.50;57.80;;;;;;5112075;28;20177;-69